Flugplatz Norden-Norddeich

Für EDWS sind keine METAR/TAF Berichte vorhanden.
Es werden die Flugwettermeldungen vom Flugplatz Wittmundhafen Airport in 32 km Entfernung angezeigt.

Bericht für ETNT

vom 07.03. um 02:20 UTC

Wind 8 kt aus 270°

Sichtweite 10 km oder mehr

Temperatur 3.0°C

Taupunkt -3.0°C

Luftfeuchtigkeit 65%

Luftdruck 1026 hPa

ETNT 070220Z AUTO 27008KT 9999 // ////// 03/M03 Q1026 ///
Keine Prognose (TAF) verfügbar.
Impressum